Terminal Aerodrome Forecast
Issued by NWS

Current Version | Previous Version | Text Only | Print | Product List | Glossary On
Versions: 1 2 3 4 5 6 7 8 9 10 11 12 13 14 15 16 17 18
000
FTUS43 KTOP 201100
TAFFOE
TAF
KFOE 201128Z 2012/2112 19007KT P6SM SCT250 WS008/22035KT
     FM201400 20011KT P6SM SCT250
     FM201800 20015G21KT P6SM SCT050
     FM210100 19012KT P6SM SCT250=

USA.gov is the U.S. government's official web portal to all federal, state and local government web resources and services.